Time;durP1;ratioP1;P1;durP2;ratioP2;P2;SDS_P1;SDS_P2;PMS_P1;PMS_P2;Temp;Humidity;BMP_temperature;BMP_pressure;BME280_temperature;BME280_humidity;BME280_pressure;Samples;Min_cycle;Max_cycle;Signal;HPM_P1;HPM_P2
2023/06/19 00:00:57;;;;;;;2.25;1.40;;;21.90;93.30;;;;;;5028031;28;20033;-73
2023/06/19 00:03:22;;;;;;;2.80;1.60;;;21.80;93.60;;;;;;5024705;28;20021;-73
2023/06/19 00:05:48;;;;;;;3.65;1.67;;;21.80;94.20;;;;;;5026037;28;20029;-73
2023/06/19 00:08:13;;;;;;;3.47;1.60;;;21.80;94.50;;;;;;5028914;28;20022;-73
2023/06/19 00:10:39;;;;;;;2.58;1.58;;;21.70;94.90;;;;;;5026249;28;20096;-72
2023/06/19 00:13:05;;;;;;;5.13;1.80;;;21.60;95.40;;;;;;5023745;28;20025;-73
2023/06/19 00:15:30;;;;;;;2.33;2.00;;;21.60;95.90;;;;;;5031112;28;20052;-73
2023/06/19 00:17:59;;;;;;;3.13;2.00;;;21.50;96.40;;;;;;5030916;28;20024;-73
2023/06/19 00:20:25;;;;;;;4.07;2.45;;;21.40;96.90;;;;;;5031924;28;20037;-73
2023/06/19 00:22:51;;;;;;;5.07;2.75;;;21.30;97.50;;;;;;5027365;28;20030;-73
2023/06/19 00:25:19;;;;;;;6.07;3.67;;;21.20;98.00;;;;;;5019367;28;20025;-73
2023/06/19 00:27:45;;;;;;;18.00;3.70;;;21.10;98.90;;;;;;5027383;28;20512;-73
2023/06/19 00:30:11;;;;;;;6.22;3.40;;;21.10;99.50;;;;;;5021390;28;20476;-73
2023/06/19 00:32:46;;;;;;;4.65;3.40;;;21.00;99.90;;;;;;5031298;28;20049;-73
2023/06/19 00:35:13;;;;;;;4.13;3.45;;;21.00;99.90;;;;;;5028156;28;20061;-73
2023/06/19 00:37:38;;;;;;;6.00;3.58;;;21.00;99.90;;;;;;5019800;28;20036;-73
2023/06/19 00:40:08;;;;;;;4.22;3.40;;;21.00;99.90;;;;;;5030039;28;20097;-73
2023/06/19 00:42:33;;;;;;;4.68;3.10;;;21.00;99.90;;;;;;5031130;28;20033;-73
2023/06/19 00:44:59;;;;;;;5.95;3.45;;;21.00;99.90;;;;;;5016844;28;20191;-73
2023/06/19 00:47:25;;;;;;;4.78;3.40;;;21.00;99.90;;;;;;5022886;28;20036;-73
2023/06/19 00:49:51;;;;;;;9.30;3.33;;;21.00;99.90;;;;;;5027041;28;20472;-73
2023/06/19 00:52:17;;;;;;;4.93;3.80;;;21.00;99.90;;;;;;5021065;28;20033;-73
2023/06/19 00:54:43;;;;;;;6.35;4.30;;;21.00;99.90;;;;;;5025054;28;20119;-73
2023/06/19 00:57:09;;;;;;;8.75;4.07;;;21.00;99.90;;;;;;5026050;28;20045;-73
2023/06/19 00:59:36;;;;;;;6.20;3.90;;;21.00;99.90;;;;;;5017718;28;20026;-73
2023/06/19 01:02:02;;;;;;;6.60;4.72;;;21.00;99.90;;;;;;5028749;28;20415;-73
2023/06/19 01:04:28;;;;;;;11.63;5.25;;;20.90;99.90;;;;;;5021217;28;20034;-73
2023/06/19 01:06:57;;;;;;;6.43;4.50;;;20.80;99.90;;;;;;5018520;28;20055;-73
2023/06/19 01:09:30;;;;;;;7.05;4.72;;;20.80;99.90;;;;;;5030919;28;20403;-73
2023/06/19 01:12:00;;;;;;;7.97;4.60;;;20.70;99.90;;;;;;5017764;28;20022;-73
2023/06/19 01:14:35;;;;;;;9.20;6.15;;;20.70;99.90;;;;;;5022302;28;20038;-73
2023/06/19 01:17:00;;;;;;;8.82;6.65;;;20.70;99.90;;;;;;5023088;28;20028;-73
2023/06/19 01:19:27;;;;;;;12.00;7.43;;;20.60;99.90;;;;;;5024245;28;20025;-73
2023/06/19 01:21:53;;;;;;;9.50;7.03;;;20.50;99.90;;;;;;5017188;28;20026;-73
2023/06/19 01:24:19;;;;;;;11.05;6.78;;;20.40;99.90;;;;;;5030401;28;20084;-73
2023/06/19 01:26:45;;;;;;;9.02;7.45;;;20.40;99.90;;;;;;5026655;28;20025;-74
2023/06/19 01:29:12;;;;;;;11.15;8.80;;;20.30;99.90;;;;;;5031263;28;20044;-73
2023/06/19 01:31:48;;;;;;;12.38;8.90;;;20.30;99.90;;;;;;5027213;28;20052;-74
2023/06/19 01:34:15;;;;;;;10.48;8.88;;;20.20;99.90;;;;;;5017721;28;20045;-74
2023/06/19 01:36:41;;;;;;;11.40;9.32;;;20.30;99.90;;;;;;5022077;28;20099;-74
2023/06/19 01:39:09;;;;;;;13.20;10.13;;;20.30;99.90;;;;;;5027708;28;20496;-73
2023/06/19 01:41:36;;;;;;;13.30;10.13;;;20.30;99.90;;;;;;5021804;28;20053;-73
2023/06/19 01:44:02;;;;;;;16.58;11.18;;;20.30;99.90;;;;;;5017454;28;20510;-73
2023/06/19 01:46:28;;;;;;;13.70;10.80;;;20.30;99.90;;;;;;5026746;28;20440;-73
2023/06/19 01:48:54;;;;;;;16.55;11.00;;;20.40;99.90;;;;;;5021093;28;20033;-73
2023/06/19 01:51:19;;;;;;;16.52;11.95;;;20.40;99.90;;;;;;5030230;28;20120;-73
2023/06/19 01:53:45;;;;;;;16.58;11.95;;;20.40;99.90;;;;;;5017711;28;20473;-74
2023/06/19 01:56:11;;;;;;;16.15;11.88;;;20.50;99.90;;;;;;5026848;28;20124;-73
2023/06/19 01:58:37;;;;;;;19.40;12.32;;;20.50;99.90;;;;;;5022668;28;20100;-73
2023/06/19 02:01:02;;;;;;;16.42;12.15;;;20.50;99.90;;;;;;5031048;28;20109;-73
2023/06/19 02:03:28;;;;;;;17.58;12.15;;;20.50;99.90;;;;;;5019662;28;20095;-73
2023/06/19 02:05:53;;;;;;;17.35;13.10;;;20.50;99.90;;;;;;5024346;28;20030;-73
2023/06/19 02:08:19;;;;;;;20.15;12.48;;;20.50;99.90;;;;;;5024600;28;20539;-73
2023/06/19 02:10:45;;;;;;;18.45;13.18;;;20.60;99.90;;;;;;5019633;28;20017;-72
2023/06/19 02:13:10;;;;;;;23.48;15.38;;;20.60;99.90;;;;;;5030774;28;20025;-73
2023/06/19 02:15:36;;;;;;;24.77;17.67;;;20.60;99.90;;;;;;5019896;28;20025;-73
2023/06/19 02:18:02;;;;;;;28.52;19.88;;;20.50;99.90;;;;;;5026089;28;20100;-73
2023/06/19 02:20:27;;;;;;;34.80;22.45;;;20.50;99.90;;;;;;5029703;28;20088;-73
2023/06/19 02:22:53;;;;;;;39.15;22.95;;;20.50;99.90;;;;;;5024219;28;20030;-73
2023/06/19 02:25:19;;;;;;;39.53;26.35;;;20.50;99.90;;;;;;5028074;28;20037;-73
2023/06/19 02:27:45;;;;;;;43.05;27.63;;;20.40;99.90;;;;;;5031100;28;20089;-73
2023/06/19 02:30:11;;;;;;;45.28;28.42;;;20.40;99.90;;;;;;5028266;28;20427;-73
2023/06/19 02:32:36;;;;;;;47.00;28.60;;;20.40;99.90;;;;;;5026275;28;20567;-73
2023/06/19 02:35:04;;;;;;;55.20;33.22;;;20.30;99.90;;;;;;5025245;28;20664;-73
2023/06/19 02:37:30;;;;;;;54.90;34.95;;;20.30;99.90;;;;;;5031645;28;20032;-73
2023/06/19 02:39:55;;;;;;;61.30;36.45;;;20.30;99.90;;;;;;5030665;28;20022;-73
2023/06/19 02:42:21;;;;;;;56.20;34.15;;;20.20;99.90;;;;;;5027944;28;20364;-73
2023/06/19 02:44:46;;;;;;;54.58;34.28;;;20.20;99.90;;;;;;5025781;28;20057;-73
2023/06/19 02:47:12;;;;;;;52.60;32.08;;;20.20;99.90;;;;;;5023952;28;20385;-73
2023/06/19 02:49:37;;;;;;;50.60;31.27;;;20.10;99.90;;;;;;5029091;28;20029;-73
2023/06/19 02:52:04;;;;;;;51.40;30.73;;;20.10;99.90;;;;;;5026172;28;20655;-74
2023/06/19 02:54:30;;;;;;;46.22;28.63;;;20.00;99.90;;;;;;5029464;28;20114;-74
2023/06/19 02:56:55;;;;;;;43.00;27.35;;;20.00;99.90;;;;;;5030402;28;20420;-74
2023/06/19 02:59:22;;;;;;;41.28;25.27;;;19.90;99.90;;;;;;5028826;28;20028;-74
2023/06/19 03:01:47;;;;;;;38.20;24.45;;;19.80;99.90;;;;;;5025930;28;20017;-75
2023/06/19 03:04:13;;;;;;;44.20;26.95;;;19.80;99.90;;;;;;5027746;28;20083;-75
2023/06/19 03:06:39;;;;;;;49.20;30.27;;;19.70;99.90;;;;;;5026576;28;20034;-74
2023/06/19 03:09:11;;;;;;;58.30;33.60;;;19.60;99.90;;;;;;5028353;28;20028;-74
2023/06/19 03:11:40;;;;;;;60.35;37.08;;;19.60;99.90;;;;;;5020370;28;20123;-74
2023/06/19 03:14:07;;;;;;;65.78;38.13;;;19.50;99.90;;;;;;5024195;28;20474;-74
2023/06/19 03:16:33;;;;;;;62.95;39.03;;;19.50;99.90;;;;;;5023446;28;20108;-74
2023/06/19 03:18:59;;;;;;;65.93;39.17;;;19.50;99.90;;;;;;5031893;28;20112;-74
2023/06/19 03:21:26;;;;;;;71.20;39.83;;;19.40;99.90;;;;;;5023961;28;20168;-74
2023/06/19 03:23:51;;;;;;;76.20;41.83;;;19.50;99.90;;;;;;5028277;28;20026;-74
2023/06/19 03:26:18;;;;;;;75.47;41.30;;;19.40;99.90;;;;;;5016318;28;20037;-74
2023/06/19 03:28:44;;;;;;;70.55;40.50;;;19.40;99.90;;;;;;5027185;28;20071;-74
2023/06/19 03:31:10;;;;;;;54.40;33.22;;;19.40;99.90;;;;;;5029154;28;20350;-75
2023/06/19 03:33:35;;;;;;;53.13;29.80;;;19.30;99.90;;;;;;5023330;28;20040;-74
2023/06/19 03:36:01;;;;;;;48.85;29.17;;;19.30;99.90;;;;;;5028419;28;20104;-75
2023/06/19 03:38:27;;;;;;;47.67;28.25;;;19.20;99.90;;;;;;5022698;28;20037;-74
2023/06/19 03:40:53;;;;;;;43.97;26.70;;;19.20;99.90;;;;;;5018604;28;20034;-74
2023/06/19 03:43:18;;;;;;;42.30;26.45;;;19.20;99.90;;;;;;5032253;28;20048;-74
2023/06/19 03:45:44;;;;;;;40.63;24.65;;;19.10;99.90;;;;;;5028154;28;20049;-74
2023/06/19 03:48:09;;;;;;;39.45;23.42;;;19.10;99.90;;;;;;5030564;28;20365;-74
2023/06/19 03:50:35;;;;;;;36.22;19.73;;;19.10;99.90;;;;;;5030894;28;20413;-74
2023/06/19 03:53:01;;;;;;;30.38;19.50;;;19.10;99.90;;;;;;5024886;28;20024;-74
2023/06/19 03:55:26;;;;;;;28.92;16.73;;;19.10;99.90;;;;;;5026714;28;20030;-74
2023/06/19 03:57:52;;;;;;;24.67;15.93;;;19.10;99.90;;;;;;5030794;28;20057;-74
2023/06/19 04:00:18;;;;;;;22.02;14.75;;;19.00;99.90;;;;;;5019660;28;20018;-74
2023/06/19 04:02:46;;;;;;;18.75;12.65;;;19.00;99.90;;;;;;5029841;28;20076;-74
2023/06/19 04:05:12;;;;;;;20.35;12.85;;;19.00;99.90;;;;;;5021014;28;20075;-74
2023/06/19 04:07:37;;;;;;;21.20;12.88;;;19.00;99.90;;;;;;5027217;28;20029;-74
2023/06/19 04:10:03;;;;;;;18.48;13.77;;;18.90;99.90;;;;;;5025545;28;20029;-74
2023/06/19 04:12:29;;;;;;;19.73;13.90;;;18.90;99.90;;;;;;5027040;28;20029;-73
2023/06/19 04:14:54;;;;;;;21.85;13.77;;;18.90;99.90;;;;;;5019465;28;20030;-74
2023/06/19 04:17:20;;;;;;;22.33;14.63;;;18.90;99.90;;;;;;5024213;28;20668;-74
2023/06/19 04:19:45;;;;;;;23.70;16.08;;;18.90;99.90;;;;;;5021854;28;20026;-74
2023/06/19 04:22:11;;;;;;;24.73;15.77;;;18.80;99.90;;;;;;5023341;28;20032;-73
2023/06/19 04:24:36;;;;;;;21.42;15.20;;;18.80;99.90;;;;;;5021379;28;20075;-74
2023/06/19 04:27:02;;;;;;;25.92;16.73;;;18.80;99.90;;;;;;5029568;28;20064;-74
2023/06/19 04:29:31;;;;;;;26.02;16.60;;;18.80;99.90;;;;;;5020594;28;20053;-74
2023/06/19 04:31:58;;;;;;;25.63;16.80;;;18.80;99.90;;;;;;5028903;28;20017;-74
2023/06/19 04:34:25;;;;;;;31.55;17.52;;;18.80;99.90;;;;;;5022447;28;20022;-73
2023/06/19 04:36:51;;;;;;;32.67;18.63;;;18.70;99.90;;;;;;5022718;28;20018;-73
2023/06/19 04:39:17;;;;;;;26.20;18.33;;;18.70;99.90;;;;;;5025643;28;20033;-73
2023/06/19 04:41:45;;;;;;;28.85;18.58;;;18.70;99.90;;;;;;5030510;28;20036;-73
2023/06/19 04:44:13;;;;;;;29.17;18.92;;;18.70;99.90;;;;;;5024752;28;20034;-73
2023/06/19 04:46:41;;;;;;;29.70;18.90;;;18.70;99.90;;;;;;5023249;28;20066;-73
2023/06/19 04:49:08;;;;;;;30.15;18.67;;;18.70;99.90;;;;;;5023531;28;20054;-73
2023/06/19 04:51:34;;;;;;;30.90;19.30;;;18.80;99.90;;;;;;5029693;28;20028;-74
2023/06/19 04:54:00;;;;;;;33.58;19.25;;;18.80;99.90;;;;;;5028854;28;20025;-74
2023/06/19 04:56:26;;;;;;;31.77;19.92;;;18.80;99.90;;;;;;5030437;28;20392;-73
2023/06/19 04:58:52;;;;;;;33.30;19.73;;;18.80;99.90;;;;;;5031406;28;20112;-74
2023/06/19 05:01:22;;;;;;;31.33;20.25;;;18.80;99.90;;;;;;5022762;28;20013;-73
2023/06/19 05:03:47;;;;;;;30.73;20.02;;;18.80;99.90;;;;;;5017521;28;20017;-74
2023/06/19 05:06:13;;;;;;;31.23;20.80;;;18.70;99.90;;;;;;5021631;28;20384;-74
2023/06/19 05:08:39;;;;;;;34.63;20.67;;;18.70;99.90;;;;;;5021806;28;20030;-73
2023/06/19 05:11:04;;;;;;;34.47;21.50;;;18.80;99.90;;;;;;5025425;28;20456;-73
2023/06/19 05:13:30;;;;;;;35.75;23.17;;;18.70;99.90;;;;;;5029353;28;20021;-79
2023/06/19 05:15:58;;;;;;;36.55;23.00;;;18.70;99.90;;;;;;5024026;28;20065;-77
2023/06/19 05:18:24;;;;;;;38.28;23.45;;;18.60;99.90;;;;;;5025797;28;20018;-76
2023/06/19 05:20:49;;;;;;;38.95;24.88;;;18.60;99.90;;;;;;5019744;28;20481;-76
2023/06/19 05:23:15;;;;;;;39.28;24.90;;;18.60;99.90;;;;;;5030552;28;20028;-77
2023/06/19 05:25:42;;;;;;;41.20;25.45;;;18.60;99.90;;;;;;5022489;28;20064;-77
2023/06/19 05:28:08;;;;;;;37.75;24.98;;;18.60;99.90;;;;;;5019359;28;20021;-77
2023/06/19 05:30:34;;;;;;;39.05;24.13;;;18.60;99.90;;;;;;5026313;28;20375;-77
2023/06/19 05:33:00;;;;;;;39.78;24.80;;;18.60;99.90;;;;;;5022829;28;20014;-76
2023/06/19 05:35:26;;;;;;;36.03;24.33;;;18.50;99.90;;;;;;5029496;28;20025;-76
2023/06/19 05:37:52;;;;;;;36.92;24.40;;;18.50;99.90;;;;;;5015018;28;20037;-78
2023/06/19 05:40:17;;;;;;;38.42;24.65;;;18.50;99.90;;;;;;5017877;28;20021;-77
2023/06/19 05:42:43;;;;;;;39.20;25.58;;;18.40;99.90;;;;;;5025987;28;20024;-77
2023/06/19 05:45:09;;;;;;;43.15;25.35;;;18.40;99.90;;;;;;5026086;28;20045;-76
2023/06/19 05:47:35;;;;;;;40.25;25.35;;;18.30;99.90;;;;;;5027495;28;20034;-76
2023/06/19 05:50:00;;;;;;;42.42;26.67;;;18.30;99.90;;;;;;5031599;28;20030;-77
2023/06/19 05:52:26;;;;;;;37.85;26.08;;;18.30;99.90;;;;;;5026545;28;20144;-76
2023/06/19 05:54:53;;;;;;;40.58;27.30;;;18.20;99.90;;;;;;5012456;28;20030;-76
2023/06/19 05:57:20;;;;;;;45.30;27.92;;;18.20;99.90;;;;;;5035464;28;20044;-76
2023/06/19 05:59:49;;;;;;;40.00;26.52;;;18.20;99.90;;;;;;5024958;28;20446;-76
2023/06/19 06:02:17;;;;;;;42.50;27.40;;;18.20;99.90;;;;;;5025087;28;20021;-76
2023/06/19 06:04:43;;;;;;;39.30;26.98;;;18.20;99.90;;;;;;5029486;28;20050;-73
2023/06/19 06:07:09;;;;;;;39.85;25.40;;;18.20;99.90;;;;;;5031293;28;20061;-73
2023/06/19 06:09:34;;;;;;;36.03;26.00;;;18.10;99.90;;;;;;5030661;28;20033;-73
2023/06/19 06:12:00;;;;;;;42.55;25.80;;;18.10;99.90;;;;;;5027935;28;20028;-73
2023/06/19 06:14:26;;;;;;;41.00;25.10;;;18.10;99.90;;;;;;5031132;28;20045;-73
2023/06/19 06:16:52;;;;;;;40.33;25.08;;;18.10;99.90;;;;;;5034944;28;20033;-73
2023/06/19 06:19:21;;;;;;;38.67;24.35;;;18.20;99.90;;;;;;5035167;28;20029;-72
2023/06/19 06:21:46;;;;;;;36.35;23.38;;;18.20;99.90;;;;;;5031502;28;20025;-73
2023/06/19 06:24:12;;;;;;;34.22;22.90;;;18.10;99.90;;;;;;5024280;28;20022;-73
2023/06/19 06:26:38;;;;;;;38.13;22.40;;;18.10;99.90;;;;;;5033639;28;20022;-73
2023/06/19 06:29:03;;;;;;;34.08;22.05;;;18.20;99.90;;;;;;5028944;28;20022;-72
2023/06/19 06:31:29;;;;;;;32.40;22.23;;;18.20;99.90;;;;;;5030938;28;20017;-72
2023/06/19 06:33:54;;;;;;;36.38;23.15;;;18.20;99.90;;;;;;5026014;28;20022;-73
2023/06/19 06:36:20;;;;;;;39.05;23.02;;;18.20;99.90;;;;;;5026963;28;20477;-73
2023/06/19 06:38:45;;;;;;;35.30;22.88;;;18.20;99.90;;;;;;5032795;28;20418;-73
2023/06/19 06:41:11;;;;;;;32.17;22.67;;;18.20;99.90;;;;;;5028635;28;20033;-73
2023/06/19 06:43:38;;;;;;;35.30;22.58;;;18.30;99.90;;;;;;5030418;28;20368;-72
2023/06/19 06:46:04;;;;;;;33.75;21.90;;;18.30;99.90;;;;;;5031148;28;20053;-73
2023/06/19 06:48:30;;;;;;;33.95;21.05;;;18.30;99.90;;;;;;5031971;28;20022;-73
2023/06/19 06:51:00;;;;;;;36.08;21.75;;;18.30;99.90;;;;;;5028955;28;20480;-73
2023/06/19 06:53:27;;;;;;;30.55;20.33;;;18.30;99.90;;;;;;5027516;28;20022;-73
2023/06/19 06:55:54;;;;;;;32.85;22.10;;;18.30;99.90;;;;;;5029061;28;20027;-72
2023/06/19 06:58:19;;;;;;;32.47;21.60;;;18.40;99.90;;;;;;5029340;28;20381;-72
2023/06/19 07:00:45;;;;;;;36.17;21.25;;;18.40;99.90;;;;;;5034555;28;20018;-73
2023/06/19 07:03:11;;;;;;;33.03;20.85;;;18.50;99.90;;;;;;5034343;28;20033;-73
2023/06/19 07:05:36;;;;;;;33.72;20.60;;;18.50;99.90;;;;;;5033038;28;20036;-72
2023/06/19 07:08:03;;;;;;;38.17;20.85;;;18.60;99.90;;;;;;5033352;28;20017;-73
2023/06/19 07:10:29;;;;;;;31.30;21.13;;;18.60;99.90;;;;;;5019912;28;20024;-73
2023/06/19 07:12:55;;;;;;;31.52;20.23;;;18.60;99.90;;;;;;5025521;28;20026;-73
2023/06/19 07:15:21;;;;;;;32.67;19.48;;;18.70;99.90;;;;;;5033250;28;20075;-73
2023/06/19 07:17:46;;;;;;;29.40;20.00;;;18.80;99.90;;;;;;5034119;28;20045;-73
2023/06/19 07:20:12;;;;;;;32.28;19.52;;;18.90;99.90;;;;;;5017666;28;20088;-72
2023/06/19 07:22:38;;;;;;;35.90;19.52;;;18.90;99.90;;;;;;5025084;28;20452;-73
2023/06/19 07:25:04;;;;;;;26.60;18.95;;;18.90;99.90;;;;;;5031507;28;20021;-73
2023/06/19 07:27:30;;;;;;;29.33;18.95;;;18.90;99.90;;;;;;5020821;28;20021;-73
2023/06/19 07:29:56;;;;;;;29.40;19.35;;;19.00;99.90;;;;;;5032549;28;20021;-73
2023/06/19 07:32:22;;;;;;;26.30;19.10;;;19.00;99.90;;;;;;5033827;28;20025;-73
2023/06/19 07:34:47;;;;;;;32.83;20.63;;;19.10;99.90;;;;;;5033878;28;20045;-73
2023/06/19 07:37:20;;;;;;;31.10;20.33;;;19.20;99.90;;;;;;5022172;28;20022;-73
2023/06/19 07:39:46;;;;;;;29.77;20.63;;;19.20;99.90;;;;;;5024274;28;20022;-72
2023/06/19 07:42:14;;;;;;;35.60;21.15;;;19.20;99.90;;;;;;5025268;28;20640;-73
2023/06/19 07:44:39;;;;;;;32.10;20.13;;;19.30;99.90;;;;;;5026798;28;20501;-73
2023/06/19 07:47:05;;;;;;;32.38;19.75;;;19.30;99.90;;;;;;5022963;28;20085;-73
2023/06/19 07:49:31;;;;;;;29.40;19.52;;;19.40;99.90;;;;;;5033410;28;20030;-73
2023/06/19 07:51:56;;;;;;;31.08;19.63;;;19.40;99.90;;;;;;5033419;28;20014;-73
2023/06/19 07:54:22;;;;;;;28.25;19.00;;;19.50;99.90;;;;;;5033396;28;20080;-73
2023/06/19 07:56:47;;;;;;;29.13;18.88;;;19.60;99.90;;;;;;5033535;28;20026;-73
2023/06/19 07:59:14;;;;;;;29.45;19.23;;;19.80;99.90;;;;;;5032215;28;20017;-72
2023/06/19 08:01:39;;;;;;;28.08;18.80;;;19.80;99.90;;;;;;5033467;28;20021;-73
2023/06/19 08:04:06;;;;;;;27.95;18.35;;;19.80;99.90;;;;;;5027903;28;20026;-73
2023/06/19 08:06:32;;;;;;;39.30;19.88;;;19.90;99.90;;;;;;5020199;28;20042;-73
2023/06/19 08:08:57;;;;;;;34.75;18.88;;;19.90;99.90;;;;;;5025736;28;20019;-73
2023/06/19 08:11:23;;;;;;;29.50;18.35;;;20.00;99.90;;;;;;5024997;28;20021;-73
2023/06/19 08:13:49;;;;;;;28.33;18.08;;;20.00;99.90;;;;;;5031582;28;20388;-73
2023/06/19 08:16:14;;;;;;;25.23;16.98;;;20.00;99.90;;;;;;5030049;28;20022;-73
2023/06/19 08:18:40;;;;;;;24.50;15.25;;;20.00;99.90;;;;;;5026307;28;20018;-72
2023/06/19 08:21:06;;;;;;;24.17;14.30;;;20.00;99.90;;;;;;5013914;28;20022;-73
2023/06/19 08:23:31;;;;;;;23.90;14.07;;;19.90;99.90;;;;;;5025752;28;20516;-73
2023/06/19 08:25:57;;;;;;;18.88;13.95;;;19.80;99.90;;;;;;5024388;28;20433;-73
2023/06/19 08:28:23;;;;;;;22.85;14.07;;;19.70;99.90;;;;;;5016803;28;20517;-73
2023/06/19 08:30:49;;;;;;;22.75;13.73;;;19.80;99.90;;;;;;5016504;28;20153;-73
2023/06/19 08:33:14;;;;;;;25.95;13.32;;;19.80;99.90;;;;;;5021881;28;20109;-73
2023/06/19 08:35:40;;;;;;;22.27;14.15;;;19.90;99.90;;;;;;5018356;28;20034;-73
2023/06/19 08:38:06;;;;;;;24.42;14.07;;;19.90;99.90;;;;;;5026064;28;20025;-73
2023/06/19 08:40:32;;;;;;;24.38;13.48;;;20.00;99.90;;;;;;5030205;28;20028;-73
2023/06/19 08:42:58;;;;;;;22.88;14.27;;;20.10;99.90;;;;;;5028743;28;20647;-73
2023/06/19 08:45:26;;;;;;;22.23;13.80;;;20.20;99.90;;;;;;5021433;28;20129;-73
2023/06/19 08:47:59;;;;;;;21.00;14.02;;;20.40;99.90;;;;;;5028322;28;20030;-73
2023/06/19 08:50:25;;;;;;;28.08;14.02;;;20.50;99.90;;;;;;5032379;28;20079;-73
2023/06/19 08:52:51;;;;;;;20.13;12.82;;;20.60;99.90;;;;;;5027849;28;20113;-73
2023/06/19 08:55:16;;;;;;;19.08;13.18;;;20.70;99.90;;;;;;5014599;28;20149;-73
2023/06/19 08:57:42;;;;;;;21.40;11.88;;;20.80;99.90;;;;;;5018751;28;20028;-73
2023/06/19 09:00:10;;;;;;;19.25;11.80;;;20.90;99.90;;;;;;5016594;28;20029;-73
2023/06/19 09:02:46;;;;;;;17.65;11.52;;;20.90;99.90;;;;;;5021036;28;20030;-73
2023/06/19 09:05:12;;;;;;;16.30;11.05;;;21.10;99.90;;;;;;5026354;28;20540;-73
2023/06/19 09:07:38;;;;;;;20.23;11.80;;;21.20;99.90;;;;;;5024377;28;20018;-73
2023/06/19 09:10:30;;;;;;;18.17;12.23;;;21.30;99.90;;;;;;5032045;28;20092;-73
2023/06/19 09:13:00;;;;;;;17.27;11.85;;;21.30;99.90;;;;;;5021846;28;20037;-73
2023/06/19 09:15:36;;;;;;;17.50;12.23;;;21.40;99.90;;;;;;5031962;28;20100;-73
2023/06/19 09:18:10;;;;;;;19.48;11.93;;;21.30;99.90;;;;;;5031835;28;20037;-73
2023/06/19 09:20:41;;;;;;;16.85;11.45;;;21.40;99.90;;;;;;5031865;28;20029;-73
2023/06/19 09:23:07;;;;;;;23.00;11.68;;;21.50;99.90;;;;;;5031710;28;20054;-73
2023/06/19 09:25:43;;;;;;;20.73;11.77;;;21.50;99.90;;;;;;5031896;28;20030;-72
2023/06/19 09:28:26;;;;;;;18.25;11.00;;;21.60;99.90;;;;;;5031843;28;20032;-73
2023/06/19 09:30:56;;;;;;;19.23;11.27;;;21.70;99.90;;;;;;5029157;28;20025;-73
2023/06/19 09:33:22;;;;;;;16.02;11.52;;;21.70;99.90;;;;;;5027544;28;20439;-73
2023/06/19 09:35:50;;;;;;;14.82;10.35;;;21.60;99.90;;;;;;5032017;28;20048;-73
2023/06/19 09:38:18;;;;;;;20.55;10.60;;;21.60;99.90;;;;;;5031162;28;20028;-73
2023/06/19 09:40:48;;;;;;;16.42;11.05;;;21.70;99.90;;;;;;5024135;28;20388;-73
2023/06/19 09:43:19;;;;;;;16.38;11.35;;;21.80;99.90;;;;;;5027282;28;20037;-73
2023/06/19 09:45:50;;;;;;;16.33;9.75;;;21.90;99.90;;;;;;5023482;28;20096;-73
2023/06/19 09:48:21;;;;;;;16.40;9.70;;;21.90;99.90;;;;;;5030632;28;20080;-74
2023/06/19 09:50:54;;;;;;;17.55;10.70;;;22.00;99.90;;;;;;5030370;28;20029;-73
2023/06/19 09:53:20;;;;;;;17.05;11.05;;;22.10;99.90;;;;;;5013388;28;20362;-73
2023/06/19 09:55:50;;;;;;;17.33;12.02;;;22.10;99.90;;;;;;5024912;28;20057;-73
2023/06/19 09:58:18;;;;;;;15.45;11.07;;;22.10;99.90;;;;;;5022353;28;20022;-73
2023/06/19 10:00:44;;;;;;;18.35;9.98;;;22.20;99.90;;;;;;5030223;28;20499;-73
2023/06/19 10:03:13;;;;;;;16.20;10.77;;;22.30;99.90;;;;;;5031335;28;20040;-73
2023/06/19 10:05:42;;;;;;;19.58;10.10;;;22.40;99.90;;;;;;5019875;28;20053;-73
2023/06/19 10:08:08;;;;;;;13.23;8.60;;;22.50;99.90;;;;;;5021804;28;20029;-73
2023/06/19 10:10:34;;;;;;;14.23;8.32;;;22.60;99.90;;;;;;5021505;28;20054;-73
2023/06/19 10:13:12;;;;;;;13.45;8.52;;;22.60;99.90;;;;;;5027610;28;20445;-73
2023/06/19 10:15:46;;;;;;;11.73;8.50;;;22.60;99.90;;;;;;5021439;28;20101;-73
2023/06/19 10:18:16;;;;;;;12.25;8.13;;;22.70;99.90;;;;;;5031598;28;20029;-73
2023/06/19 10:20:43;;;;;;;12.18;7.78;;;22.80;99.90;;;;;;5030916;28;20025;-73
2023/06/19 10:23:20;;;;;;;11.40;7.55;;;23.00;99.90;;;;;;5031263;28;20026;-73
2023/06/19 10:25:48;;;;;;;11.15;7.68;;;23.20;99.90;;;;;;5031549;28;20029;-73
2023/06/19 10:28:24;;;;;;;12.50;7.88;;;23.30;99.90;;;;;;5028317;28;20041;-73
2023/06/19 10:30:56;;;;;;;;;;;23.50;99.90;;;;;;5019232;28;20034;-73
2023/06/19 10:33:24;;;;;;;12.60;8.40;;;23.60;99.90;;;;;;5027100;28;19916;-73
2023/06/19 10:35:50;;;;;;;14.63;9.07;;;23.70;99.90;;;;;;5031028;28;20096;-73
2023/06/19 10:38:16;;;;;;;15.73;8.80;;;23.70;99.90;;;;;;5030856;28;20021;-73
2023/06/19 10:40:44;;;;;;;13.07;8.63;;;23.70;99.90;;;;;;5019114;28;20026;-73
2023/06/19 10:43:10;;;;;;;14.57;9.52;;;23.70;99.90;;;;;;5030052;28;20391;-73
2023/06/19 10:45:35;;;;;;;13.35;10.32;;;23.70;99.90;;;;;;5020155;28;20058;-73
2023/06/19 10:48:03;;;;;;;21.13;14.50;;;23.70;99.90;;;;;;5021516;28;20472;-73
2023/06/19 10:50:29;;;;;;;23.88;17.20;;;23.80;99.90;;;;;;5034785;28;20030;-73
2023/06/19 10:52:55;;;;;;;24.05;16.00;;;23.80;99.90;;;;;;5029105;28;20022;-74
2023/06/19 10:55:21;;;;;;;24.10;14.45;;;24.00;99.90;;;;;;5017133;28;20392;-73
2023/06/19 10:57:48;;;;;;;17.75;11.85;;;24.00;99.90;;;;;;5034277;28;20025;-73
2023/06/19 11:00:28;;;;;;;17.38;10.55;;;24.10;99.90;;;;;;5030268;28;20018;-72
2023/06/19 11:02:58;;;;;;;15.93;9.30;;;24.10;99.90;;;;;;5025750;28;20536;-72
2023/06/19 11:05:25;;;;;;;15.18;8.50;;;24.10;99.90;;;;;;5029720;28;20432;-73
2023/06/19 11:08:00;;;;;;;15.07;9.50;;;24.00;99.90;;;;;;5034758;28;20372;-72
2023/06/19 11:10:28;;;;;;;13.77;9.65;;;24.00;99.90;;;;;;5030113;28;20021;-73
2023/06/19 11:12:58;;;;;;;13.60;8.55;;;24.10;99.90;;;;;;5024551;28;20483;-73
2023/06/19 11:15:34;;;;;;;13.77;9.63;;;24.00;99.90;;;;;;5023932;28;20554;-72
2023/06/19 11:18:01;;;;;;;14.88;8.90;;;24.20;99.90;;;;;;5033369;28;20032;-73
2023/06/19 11:20:27;;;;;;;12.65;8.85;;;24.20;99.90;;;;;;5022003;28;20500;-73
2023/06/19 11:22:58;;;;;;;14.93;9.52;;;24.20;99.90;;;;;;5033192;28;20384;-73
2023/06/19 11:25:34;;;;;;;15.95;10.50;;;24.20;99.90;;;;;;5028025;28;20102;-73
2023/06/19 11:28:00;;;;;;;15.25;10.90;;;24.20;99.90;;;;;;5025407;28;20120;-73
2023/06/19 11:30:33;;;;;;;16.02;11.68;;;24.40;99.90;;;;;;5028891;28;20037;-75
2023/06/19 11:33:00;;;;;;;14.73;11.27;;;24.60;99.90;;;;;;5022775;28;20029;-75
2023/06/19 11:35:35;;;;;;;17.98;12.48;;;24.70;99.90;;;;;;5029714;28;20485;-75
2023/06/19 11:38:01;;;;;;;15.55;12.13;;;25.10;99.90;;;;;;5026886;28;20476;-76
2023/06/19 11:40:28;;;;;;;16.27;11.50;;;25.20;99.90;;;;;;5017720;28;20033;-76
2023/06/19 11:42:54;;;;;;;19.60;11.55;;;25.40;99.90;;;;;;5019879;28;20017;-75
2023/06/19 11:45:21;;;;;;;15.50;11.93;;;25.50;99.90;;;;;;5026131;28;20053;-76
2023/06/19 11:47:46;;;;;;;15.20;11.77;;;25.50;99.90;;;;;;5018783;28;20075;-76
2023/06/19 11:50:13;;;;;;;17.35;13.15;;;25.70;99.90;;;;;;5020545;28;20021;-76
2023/06/19 11:52:39;;;;;;;18.08;13.98;;;25.80;99.60;;;;;;5026402;28;20032;-76
2023/06/19 11:55:06;;;;;;;19.98;14.30;;;25.80;99.20;;;;;;5024951;28;20125;-76
2023/06/19 11:57:33;;;;;;;16.40;11.88;;;25.80;98.80;;;;;;5027227;28;20420;-75
2023/06/19 11:59:58;;;;;;;15.98;11.55;;;25.90;98.50;;;;;;5025897;28;20025;-76
2023/06/19 12:02:24;;;;;;;14.95;10.82;;;26.10;97.30;;;;;;5028239;28;20030;-76
2023/06/19 12:04:50;;;;;;;16.80;12.05;;;26.30;97.00;;;;;;5021671;28;20025;-75
2023/06/19 12:07:15;;;;;;;16.65;11.65;;;26.40;96.20;;;;;;5028468;28;20026;-76
2023/06/19 12:09:43;;;;;;;18.38;11.73;;;26.40;95.50;;;;;;5029104;28;20030;-76
2023/06/19 12:12:09;;;;;;;17.35;10.95;;;26.30;95.40;;;;;;5019336;28;20017;-76
2023/06/19 12:14:34;;;;;;;16.02;11.40;;;26.30;95.30;;;;;;5030394;28;20037;-76
2023/06/19 12:17:00;;;;;;;16.63;10.98;;;26.20;95.40;;;;;;5026812;28;20036;-75
2023/06/19 12:19:29;;;;;;;15.27;9.70;;;26.10;94.80;;;;;;5032712;28;20076;-76
2023/06/19 12:21:55;;;;;;;17.35;10.55;;;26.10;94.80;;;;;;5029555;28;20032;-76
2023/06/19 12:24:20;;;;;;;15.57;10.13;;;26.20;94.30;;;;;;5028976;28;20460;-76
2023/06/19 12:26:46;;;;;;;14.23;9.75;;;26.30;93.90;;;;;;5020216;28;20056;-76
2023/06/19 12:29:12;;;;;;;12.30;8.98;;;26.40;93.40;;;;;;5025589;28;20064;-75